Bell City, Kentucky
Current Conditions -  °F | °C
As of 2:15 PM on Friday 31 Oct 2014 (Local Time) from KM25 Reporting Station
Clear Clear  
Wind Chill: 40°   Ceiling: Unl
Heat Index: 48°   Visibility: 10mi
Dew Point: 28°   Wind: 28mph
Humidity: 46%   Direction: 340°NNW
Pressure: 30.14"   Gusts: 33mph
Location:  36.6766°N, 88.5376°W
Report Text: KM25 311915Z AUTO 34024G29KT 10SM CLR 09/M02 A3014 RMK AO2
Loading
Personal Weather Stations






























Interactive Weather Map
Tropical Storm Tracking
New forecast layout! Learn more

10-Day Weather Forecast

Advertisements
Track Severe Weather on mobile